Lamb, Illinois
Current Conditions -  °F | °C
As of 4:35 AM on Monday 20 Oct 2014 (Local Time) from K5M9 Reporting Station
Scattered Clouds Scattered Clouds  
Wind Chill: 47°   Ceiling: Unl
Heat Index: 47°   Visibility: 10mi
Dew Point: 46°   Wind: 0mph
Humidity: 93%   Direction: NA
Pressure: 30.04"   Gusts: NA
Location:  37.5407°N, 88.2414°W
Report Text: K5M9 200935Z AUTO 00000KT 10SM SCT110 09/08 A3004 RMK AO2 T00860075
Loading
Personal Weather Stations






























Interactive Weather Map
Tropical Storm Tracking
New forecast layout! Learn more

10-Day Weather Forecast

Advertisements
Track Severe Weather on mobile